Terminal Aerodrome Forecast
Issued by NWS Charleston, WV

Current Version | Previous Version | Text Only | Print | Product List | Glossary Off
Versions: 1 2 3 4 5 6 7 8 9 10 11 12 13 14 15 16 17 18 19 20 21 22 23 24 25 26 27

000
FTUS41 KRLX 081500 AAA
TAFBKW
TAF AMD
KBKW 081514Z 0815/0912 24010G19KT P6SM SCT025 SCT050
     FM082100 22012G19KT P6SM VCTS BKN040CB
     FM082200 23012G19KT 6SM +TSRA BR BKN035CB
     FM090100 25010G15KT 5SM TSRA BR OVC035CB
     FM090700 26006KT P6SM BKN025=

USA.gov is the U.S. government's official web portal to all federal, state and local government web resources and services.